Terminal Aerodrome Forecast
Issued by NWS

Home | Current Version | Previous Version | Text Only | Print | Product List | Glossary On
Versions: 1 2 3 4 5 6 7 8 9 10 11 12 13 14 15 16 17 18 19 20
000
FTUS41 KCAR 060531
TAFBHB
TAF
KBHB 060531Z 0606/0706 01009KT P6SM -RA SCT007 OVC015
     FM061100 36011KT P6SM BKN020
     FM061600 02008KT P6SM BKN040
     FM062200 09006KT P6SM SCT040=

USA.gov is the U.S. government's official web portal to all federal, state and local government web resources and services.